Time;durP1;ratioP1;P1;durP2;ratioP2;P2;SDS_P1;SDS_P2;PMS_P1;PMS_P2;Temp;Humidity;BMP_temperature;BMP_pressure;BME280_temperature;BME280_humidity;BME280_pressure;Samples;Min_cycle;Max_cycle;Signal;HPM_P1;HPM_P2
2022/12/13 00:00:01;;;;;;;3.67;2.13;;;;;;;;;;5076659;28;20020;-69
2022/12/13 00:02:26;;;;;;;3.88;2.38;;;;;;;;;;5076359;28;20032;-71
2022/12/13 00:04:51;;;;;;;4.95;2.28;;;;;;;;;;5078164;28;20036;-69
2022/12/13 00:07:17;;;;;;;3.28;1.85;;;;;;;;;;5077538;28;20331;-69
2022/12/13 00:09:42;;;;;;;5.40;2.08;;;;;;;;;;5076525;28;20029;-69
2022/12/13 00:12:08;;;;;;;4.45;2.00;;;;;;;;;;5076379;28;20027;-69
2022/12/13 00:14:33;;;;;;;3.70;1.83;;;;;;;;;;5076790;28;20404;-69
2022/12/13 00:16:58;;;;;;;3.55;1.95;;;;;;;;;;5076535;28;20103;-69
2022/12/13 00:19:24;;;;;;;4.32;1.67;;;;;;;;;;5076494;28;20021;-69
2022/12/13 00:21:50;;;;;;;3.58;1.80;;;;;;;;;;5076654;28;20029;-69
2022/12/13 00:24:15;;;;;;;3.60;1.77;;;;;;;;;;5074558;28;20029;-69
2022/12/13 00:26:40;;;;;;;3.33;1.80;;;;;;;;;;5075807;28;20025;-69
2022/12/13 00:29:07;;;;;;;3.13;1.60;;;;;;;;;;5079897;28;20021;-70
2022/12/13 00:31:33;;;;;;;3.75;1.80;;;;;;;;;;5076814;28;20017;-69
2022/12/13 00:33:59;;;;;;;3.72;1.95;;;;;;;;;;5076004;28;20024;-69
2022/12/13 00:36:25;;;;;;;2.60;1.70;;;;;;;;;;5076382;28;20040;-69
2022/12/13 00:38:59;;;;;;;2.58;1.73;;;;;;;;;;5074923;28;20025;-69
2022/12/13 00:41:26;;;;;;;3.28;1.90;;;;;;;;;;5076756;28;20021;-71
2022/12/13 00:43:51;;;;;;;3.22;1.83;;;;;;;;;;5078928;28;20077;-70
2022/12/13 00:46:21;;;;;;;2.95;1.60;;;;;;;;;;5079620;28;20035;-70
2022/12/13 00:48:51;;;;;;;2.90;1.70;;;;;;;;;;5076159;28;20550;-71
2022/12/13 00:51:17;;;;;;;3.97;1.58;;;;;;;;;;5076436;28;20025;-70
2022/12/13 00:53:42;;;;;;;3.25;1.65;;;;;;;;;;5075985;28;20036;-70
2022/12/13 00:56:12;;;;;;;3.35;1.70;;;;;;;;;;5080041;28;20029;-70
2022/12/13 00:58:38;;;;;;;2.35;1.60;;;;;;;;;;5075790;28;20036;-70
2022/12/13 01:01:09;;;;;;;2.50;1.70;;;;;;;;;;5075799;28;20036;-70
2022/12/13 01:03:35;;;;;;;;;;;;;;;;;;5075431;28;20423;-71
2022/12/13 01:06:00;;;;;;;3.22;1.70;;;;;;;;;;5075741;28;20440;-70
2022/12/13 01:08:27;;;;;;;2.40;1.50;;;;;;;;;;5077615;28;20099;-70
2022/12/13 01:10:53;;;;;;;2.95;1.70;;;;;;;;;;5072202;28;20029;-70
2022/12/13 01:13:19;;;;;;;2.78;1.80;;;;;;;;;;5073243;28;20044;-70
2022/12/13 01:15:46;;;;;;;3.17;1.70;;;;;;;;;;5072980;28;20016;-70
2022/12/13 01:18:16;;;;;;;2.90;1.70;;;;;;;;;;5072472;28;20033;-70
2022/12/13 01:20:43;;;;;;;3.78;1.80;;;;;;;;;;5073339;28;20111;-70
2022/12/13 01:23:09;;;;;;;3.50;1.75;;;;;;;;;;5072391;28;20033;-70
2022/12/13 01:25:36;;;;;;;2.92;1.70;;;;;;;;;;5075906;28;20031;-70
2022/12/13 01:28:02;;;;;;;3.50;1.90;;;;;;;;;;5074431;28;20050;-70
2022/12/13 01:30:27;;;;;;;3.53;1.80;;;;;;;;;;5072767;28;20487;-70
2022/12/13 01:32:53;;;;;;;3.13;1.92;;;;;;;;;;5072242;28;20443;-70
2022/12/13 01:35:18;;;;;;;2.85;1.70;;;;;;;;;;5072143;28;20067;-70
2022/12/13 01:37:44;;;;;;;3.25;1.67;;;;;;;;;;5072436;28;20392;-70
2022/12/13 01:40:10;;;;;;;3.67;1.90;;;;;;;;;;5072254;28;20380;-69
2022/12/13 01:42:38;;;;;;;3.22;1.92;;;;;;;;;;5072127;28;20021;-70
2022/12/13 01:45:25;;;;;;;2.67;1.70;;;;;;;;;;5073526;28;20059;-69
2022/12/13 01:48:04;;;;;;;2.60;1.70;;;;;;;;;;5072352;28;20028;-70
2022/12/13 01:50:41;;;;;;;3.70;1.70;;;;;;;;;;5071940;28;20025;-71
2022/12/13 01:53:10;;;;;;;2.92;1.88;;;;;;;;;;5072646;28;20164;-70
2022/12/13 01:55:38;;;;;;;2.55;1.80;;;;;;;;;;5071926;28;20027;-71
2022/12/13 01:58:04;;;;;;;2.67;1.70;;;;;;;;;;5072793;28;20025;-71
2022/12/13 02:00:33;;;;;;;3.50;2.00;;;;;;;;;;5072771;28;20036;-71
2022/12/13 02:03:00;;;;;;;4.85;2.00;;;;;;;;;;5072637;28;20054;-72
2022/12/13 02:06:03;;;;;;;3.17;1.70;;;;;;;;;;5071586;28;20025;-72
2022/12/13 02:08:29;;;;;;;3.25;1.90;;;;;;;;;;5071710;28;20028;-71
2022/12/13 02:10:56;;;;;;;3.15;1.80;;;;;;;;;;5071552;28;20047;-71
2022/12/13 02:13:22;;;;;;;3.05;1.90;;;;;;;;;;5071381;28;20111;-72
2022/12/13 02:16:01;;;;;;;3.47;1.88;;;;;;;;;;5070260;28;20119;-71
2022/12/13 02:18:50;;;;;;;4.07;2.05;;;;;;;;;;5071768;28;20628;-71
2022/12/13 02:21:25;;;;;;;2.80;2.00;;;;;;;;;;5071501;28;20059;-72
2022/12/13 02:24:36;;;;;;;3.60;2.00;;;;;;;;;;5070979;28;20115;-72
2022/12/13 02:27:39;;;;;;;2.95;1.98;;;;;;;;;;5071371;28;20020;-71
2022/12/13 02:30:10;;;;;;;3.25;1.90;;;;;;;;;;5071095;28;20032;-72
2022/12/13 02:32:49;;;;;;;3.00;1.70;;;;;;;;;;5072111;28;20077;-71
2022/12/13 02:35:39;;;;;;;3.42;1.88;;;;;;;;;;5071012;28;20051;-71
2022/12/13 02:38:14;;;;;;;4.05;1.60;;;;;;;;;;5071579;28;20120;-71
2022/12/13 02:40:45;;;;;;;3.47;1.67;;;;;;;;;;5070954;28;20570;-71
2022/12/13 02:43:21;;;;;;;2.15;1.48;;;;;;;;;;5072683;28;20033;-71
2022/12/13 02:45:50;;;;;;;2.72;1.50;;;;;;;;;;5070756;28;20138;-72
2022/12/13 02:48:24;;;;;;;3.88;1.90;;;;;;;;;;5071031;28;20032;-72
2022/12/13 02:50:51;;;;;;;3.25;1.90;;;;;;;;;;5070821;28;20595;-72
2022/12/13 02:53:20;;;;;;;2.50;1.60;;;;;;;;;;5071012;28;20032;-71
2022/12/13 02:55:46;;;;;;;2.33;1.60;;;;;;;;;;5070890;28;20027;-71
2022/12/13 02:58:20;;;;;;;2.50;1.60;;;;;;;;;;5072069;28;20029;-72
2022/12/13 03:00:52;;;;;;;2.20;1.45;;;;;;;;;;5071714;28;20029;-72
2022/12/13 03:03:25;;;;;;;3.33;1.50;;;;;;;;;;5070592;28;20036;-71
2022/12/13 03:06:29;;;;;;;2.78;1.40;;;;;;;;;;5070309;28;20081;-71
2022/12/13 03:09:25;;;;;;;2.83;1.60;;;;;;;;;;5067021;28;20044;-72
2022/12/13 03:15:06;;;;;;;3.05;1.33;;;;;;;;;;5070419;28;20074;-71
2022/12/13 03:17:38;;;;;;;2.40;1.70;;;;;;;;;;5070549;28;20640;-71
2022/12/13 03:20:05;;;;;;;2.67;1.70;;;;;;;;;;5072247;28;20060;-71
2022/12/13 03:22:33;;;;;;;2.13;1.50;;;;;;;;;;5070256;28;20020;-70
2022/12/13 03:24:59;;;;;;;2.28;1.30;;;;;;;;;;5070163;28;20025;-72
2022/12/13 03:27:24;;;;;;;2.30;1.60;;;;;;;;;;5070387;28;20069;-72
2022/12/13 03:29:50;;;;;;;2.47;1.60;;;;;;;;;;5070731;28;20041;-71
2022/12/13 03:32:15;;;;;;;2.75;1.48;;;;;;;;;;5070082;28;20028;-72
2022/12/13 03:34:40;;;;;;;3.05;1.80;;;;;;;;;;5069783;28;20035;-71
2022/12/13 03:37:06;;;;;;;3.45;1.98;;;;;;;;;;5069180;28;20028;-71
2022/12/13 03:39:31;;;;;;;2.83;1.90;;;;;;;;;;5070347;28;20056;-72
2022/12/13 03:41:57;;;;;;;2.75;1.70;;;;;;;;;;5070053;28;20412;-72
2022/12/13 03:44:22;;;;;;;2.20;1.50;;;;;;;;;;5070028;28;20118;-71
2022/12/13 03:46:47;;;;;;;3.25;1.73;;;;;;;;;;5070167;28;20029;-72
2022/12/13 03:49:13;;;;;;;2.58;1.60;;;;;;;;;;5072226;28;20077;-72
2022/12/13 03:51:38;;;;;;;2.95;1.42;;;;;;;;;;5069947;28;20111;-72
2022/12/13 03:54:04;;;;;;;2.22;1.50;;;;;;;;;;5068552;28;20389;-72
2022/12/13 03:56:29;;;;;;;1.88;1.40;;;;;;;;;;5069885;28;20492;-72
2022/12/13 03:58:54;;;;;;;2.30;1.40;;;;;;;;;;5070282;28;20028;-72
2022/12/13 04:01:20;;;;;;;2.22;1.60;;;;;;;;;;5070355;28;20025;-72
2022/12/13 04:03:46;;;;;;;3.55;1.52;;;;;;;;;;5069738;28;20028;-72
2022/12/13 04:06:13;;;;;;;2.10;1.55;;;;;;;;;;5070091;28;20039;-72
2022/12/13 04:08:39;;;;;;;2.50;1.67;;;;;;;;;;5070979;28;20032;-71
2022/12/13 04:13:50;;;;;;;2.38;1.55;;;;;;;;;;5070758;28;20031;-70
2022/12/13 04:16:15;;;;;;;2.58;1.60;;;;;;;;;;5069750;28;20026;-72
2022/12/13 04:18:41;;;;;;;2.92;1.70;;;;;;;;;;5068872;28;20026;-72
2022/12/13 04:21:06;;;;;;;2.90;1.80;;;;;;;;;;5073649;28;20049;-71
2022/12/13 04:23:31;;;;;;;2.83;1.75;;;;;;;;;;5070732;28;20055;-71
2022/12/13 04:25:58;;;;;;;2.60;1.60;;;;;;;;;;5069568;28;20388;-71
2022/12/13 04:28:24;;;;;;;2.60;1.70;;;;;;;;;;5072131;28;20028;-71
2022/12/13 04:30:50;;;;;;;3.10;1.92;;;;;;;;;;5069906;28;20070;-71
2022/12/13 04:33:15;;;;;;;4.00;1.90;;;;;;;;;;5069694;28;20039;-71
2022/12/13 04:35:41;;;;;;;3.65;2.08;;;;;;;;;;5069189;28;20037;-71
2022/12/13 04:38:08;;;;;;;2.80;1.90;;;;;;;;;;5069826;28;20049;-71
2022/12/13 04:40:33;;;;;;;3.78;2.30;;;;;;;;;;5069630;28;20078;-72
2022/12/13 04:42:59;;;;;;;2.65;1.80;;;;;;;;;;5070772;28;20107;-72
2022/12/13 04:45:24;;;;;;;4.10;2.10;;;;;;;;;;5072421;28;20028;-72
2022/12/13 04:47:50;;;;;;;2.75;2.00;;;;;;;;;;5073192;28;20052;-71
2022/12/13 04:50:16;;;;;;;2.60;1.80;;;;;;;;;;5073133;28;20029;-71
2022/12/13 04:52:41;;;;;;;2.85;1.73;;;;;;;;;;5073230;28;20032;-70
2022/12/13 04:55:07;;;;;;;2.88;1.90;;;;;;;;;;5074813;28;20079;-71
2022/12/13 04:57:33;;;;;;;2.72;1.70;;;;;;;;;;5072906;28;20036;-71
2022/12/13 04:59:59;;;;;;;2.75;1.90;;;;;;;;;;5073728;28;20073;-71
2022/12/13 05:02:24;;;;;;;2.97;1.95;;;;;;;;;;5072807;28;20021;-71
2022/12/13 05:04:50;;;;;;;3.35;1.98;;;;;;;;;;5072663;28;20033;-71
2022/12/13 05:07:16;;;;;;;3.03;1.77;;;;;;;;;;5072608;28;20025;-71
2022/12/13 05:09:41;;;;;;;3.20;2.00;;;;;;;;;;5072905;28;20047;-71
2022/12/13 05:12:06;;;;;;;4.28;1.80;;;;;;;;;;5072787;28;20028;-70
2022/12/13 05:14:32;;;;;;;3.35;1.88;;;;;;;;;;5073240;28;20087;-71
2022/12/13 05:17:01;;;;;;;2.75;1.75;;;;;;;;;;5072698;28;20029;-71
2022/12/13 05:19:27;;;;;;;3.17;1.85;;;;;;;;;;5072906;28;20056;-71
2022/12/13 05:21:52;;;;;;;3.45;2.20;;;;;;;;;;5071027;28;20141;-71
2022/12/13 05:24:17;;;;;;;3.20;2.13;;;;;;;;;;5073860;28;20572;-72
2022/12/13 05:26:43;;;;;;;3.30;2.30;;;;;;;;;;5071096;28;20120;-73
2022/12/13 05:29:08;;;;;;;3.88;2.10;;;;;;;;;;5072559;28;20027;-73
2022/12/13 05:31:34;;;;;;;4.35;2.03;;;;;;;;;;5074377;28;20102;-73
2022/12/13 05:34:00;;;;;;;3.60;2.25;;;;;;;;;;5072508;28;20036;-71
2022/12/13 05:36:25;;;;;;;3.40;2.10;;;;;;;;;;5072182;28;20476;-71
2022/12/13 05:38:51;;;;;;;3.42;1.95;;;;;;;;;;5072459;28;20599;-71
2022/12/13 05:41:19;;;;;;;3.22;2.10;;;;;;;;;;5071980;28;20083;-71
2022/12/13 05:43:45;;;;;;;5.20;2.30;;;;;;;;;;5072136;28;20062;-71
2022/12/13 05:46:12;;;;;;;3.13;1.88;;;;;;;;;;5072053;28;20028;-72
2022/12/13 05:48:38;;;;;;;3.65;2.00;;;;;;;;;;5072314;28;20676;-72
2022/12/13 05:51:03;;;;;;;4.18;2.58;;;;;;;;;;5070977;28;20056;-72
2022/12/13 05:53:29;;;;;;;2.95;1.92;;;;;;;;;;5071214;28;20032;-72
2022/12/13 05:55:58;;;;;;;2.70;1.83;;;;;;;;;;5070074;28;20039;-72
2022/12/13 05:58:23;;;;;;;3.15;2.20;;;;;;;;;;5070891;28;20385;-72
2022/12/13 06:00:49;;;;;;;3.28;1.90;;;;;;;;;;5071983;28;20511;-72
2022/12/13 06:03:14;;;;;;;2.72;1.95;;;;;;;;;;5074871;28;20084;-71
2022/12/13 06:05:41;;;;;;;5.20;2.40;;;;;;;;;;5070386;28;20029;-72
2022/12/13 06:08:06;;;;;;;3.40;2.05;;;;;;;;;;5071825;28;20035;-70
2022/12/13 06:10:31;;;;;;;3.42;2.00;;;;;;;;;;5071889;28;20016;-70
2022/12/13 06:12:57;;;;;;;3.92;2.22;;;;;;;;;;5070631;28;20647;-72
2022/12/13 06:15:22;;;;;;;3.08;2.03;;;;;;;;;;5071035;28;20032;-71
2022/12/13 06:17:47;;;;;;;3.78;2.17;;;;;;;;;;5071211;28;20051;-71
2022/12/13 06:20:13;;;;;;;3.20;2.00;;;;;;;;;;5072709;28;20026;-72
2022/12/13 06:22:38;;;;;;;3.67;2.03;;;;;;;;;;5071741;28;20438;-71
2022/12/13 06:25:04;;;;;;;4.95;2.67;;;;;;;;;;5070198;28;20031;-71
2022/12/13 06:27:29;;;;;;;4.47;2.30;;;;;;;;;;5072120;28;20431;-71
2022/12/13 06:29:54;;;;;;;3.30;2.30;;;;;;;;;;5071382;28;20070;-71
2022/12/13 06:32:20;;;;;;;4.63;2.38;;;;;;;;;;5069881;28;20035;-71
2022/12/13 06:34:45;;;;;;;5.35;2.72;;;;;;;;;;5071039;28;20051;-70
2022/12/13 06:37:12;;;;;;;4.30;2.65;;;;;;;;;;5071036;28;20111;-71
2022/12/13 06:39:38;;;;;;;5.90;3.10;;;;;;;;;;5072525;28;20216;-71
2022/12/13 06:42:06;;;;;;;4.20;2.55;;;;;;;;;;5071101;28;20111;-71
2022/12/13 06:44:31;;;;;;;4.63;2.75;;;;;;;;;;5072426;28;20464;-71
2022/12/13 06:46:58;;;;;;;4.45;3.10;;;;;;;;;;5071057;28;20103;-70
2022/12/13 06:49:23;;;;;;;5.78;2.88;;;;;;;;;;5072241;28;20088;-71
2022/12/13 06:51:49;;;;;;;4.63;2.63;;;;;;;;;;5070818;28;20107;-72
2022/12/13 06:54:14;;;;;;;4.95;2.83;;;;;;;;;;5070850;28;20451;-72
2022/12/13 06:56:40;;;;;;;4.75;2.88;;;;;;;;;;5069390;28;20048;-72
2022/12/13 06:59:06;;;;;;;3.80;2.55;;;;;;;;;;5071593;28;20461;-71
2022/12/13 07:01:31;;;;;;;3.95;2.38;;;;;;;;;;5070980;28;20050;-72
2022/12/13 07:03:57;;;;;;;4.13;2.72;;;;;;;;;;5072252;28;20035;-72
2022/12/13 07:06:24;;;;;;;4.43;2.95;;;;;;;;;;5070229;28;20028;-72
2022/12/13 07:08:55;;;;;;;4.85;2.75;;;;;;;;;;5071621;28;20111;-72
2022/12/13 07:11:23;;;;;;;3.75;2.58;;;;;;;;;;5070464;28;20035;-72
2022/12/13 07:13:50;;;;;;;6.43;3.00;;;;;;;;;;5070333;28;20032;-72
2022/12/13 07:16:15;;;;;;;4.13;2.90;;;;;;;;;;5069212;28;20033;-71
2022/12/13 07:18:41;;;;;;;4.13;2.72;;;;;;;;;;5070244;28;20055;-72
2022/12/13 07:21:09;;;;;;;4.75;2.90;;;;;;;;;;5070634;28;20443;-72
2022/12/13 07:23:35;;;;;;;5.10;3.28;;;;;;;;;;5068921;28;20470;-72
2022/12/13 07:26:01;;;;;;;4.78;2.90;;;;;;;;;;5070543;28;20030;-71
2022/12/13 07:28:27;;;;;;;4.47;3.08;;;;;;;;;;5071513;28;20116;-72
2022/12/13 07:30:52;;;;;;;4.57;3.05;;;;;;;;;;5070592;28;20432;-72
2022/12/13 07:33:18;;;;;;;13.27;3.50;;;;;;;;;;5070276;28;20070;-71
2022/12/13 07:35:43;;;;;;;5.00;2.80;;;;;;;;;;5070257;28;20404;-73
2022/12/13 07:38:10;;;;;;;5.10;2.80;;;;;;;;;;5070204;28;20029;-71
2022/12/13 07:40:37;;;;;;;6.57;3.05;;;;;;;;;;5070249;28;20047;-73
2022/12/13 07:43:03;;;;;;;7.32;3.58;;;;;;;;;;5069703;28;20035;-71
2022/12/13 07:45:28;;;;;;;7.10;2.97;;;;;;;;;;5069924;28;20032;-71
2022/12/13 07:47:54;;;;;;;4.55;3.17;;;;;;;;;;5069988;28;20033;-70
2022/12/13 07:50:20;;;;;;;4.32;2.92;;;;;;;;;;5070289;28;20028;-72
2022/12/13 07:52:49;;;;;;;5.60;3.40;;;;;;;;;;5069573;28;20028;-72
2022/12/13 07:55:17;;;;;;;5.22;3.20;;;;;;;;;;5070049;28;20543;-72
2022/12/13 07:57:45;;;;;;;5.32;3.58;;;;;;;;;;5070153;28;20400;-72
2022/12/13 08:00:11;;;;;;;4.80;3.38;;;;;;;;;;5069970;28;20024;-72
2022/12/13 08:02:36;;;;;;;6.30;4.25;;;;;;;;;;5071720;28;20024;-73
2022/12/13 08:05:02;;;;;;;6.50;4.20;;;;;;;;;;5070076;28;20025;-71
2022/12/13 08:07:27;;;;;;;6.63;4.43;;;;;;;;;;5069714;28;20503;-71
2022/12/13 08:09:54;;;;;;;6.65;4.35;;;;;;;;;;5069866;28;20083;-71
2022/12/13 08:12:20;;;;;;;8.02;4.60;;;;;;;;;;5069981;28;20029;-73
2022/12/13 08:14:45;;;;;;;11.85;4.82;;;;;;;;;;5069654;28;20103;-73
2022/12/13 08:17:10;;;;;;;8.02;3.92;;;;;;;;;;5069616;28;20024;-73
2022/12/13 08:19:36;;;;;;;10.18;4.60;;;;;;;;;;5076629;28;20021;-73
2022/12/13 08:22:01;;;;;;;8.68;4.72;;;;;;;;;;5079358;28;20135;-73
2022/12/13 08:24:28;;;;;;;8.25;4.65;;;;;;;;;;5083665;28;20029;-73
2022/12/13 08:26:56;;;;;;;5.60;3.90;;;;;;;;;;5075411;28;20475;-73
2022/12/13 08:29:21;;;;;;;9.75;4.57;;;;;;;;;;5075188;28;20044;-74
2022/12/13 08:31:46;;;;;;;6.15;4.38;;;;;;;;;;5075163;28;20062;-74
2022/12/13 08:34:12;;;;;;;7.25;4.53;;;;;;;;;;5073668;28;20233;-74
2022/12/13 08:36:37;;;;;;;7.97;4.88;;;;;;;;;;5074466;28;20059;-72
2022/12/13 08:39:03;;;;;;;15.88;4.45;;;;;;;;;;5072193;28;20067;-72
2022/12/13 08:41:29;;;;;;;13.70;5.35;;;;;;;;;;5074956;28;20395;-70
2022/12/13 08:43:55;;;;;;;12.43;5.15;;;;;;;;;;5073676;28;20036;-71
2022/12/13 08:46:20;;;;;;;8.30;4.55;;;;;;;;;;5074434;28;20039;-71
2022/12/13 08:48:45;;;;;;;8.60;4.90;;;;;;;;;;5073448;28;20086;-71
2022/12/13 08:51:14;;;;;;;10.98;5.05;;;;;;;;;;5075123;28;20119;-71
2022/12/13 08:53:39;;;;;;;9.38;5.00;;;;;;;;;;5073234;28;20052;-71
2022/12/13 08:56:08;;;;;;;8.93;5.20;;;;;;;;;;5074056;28;20036;-72
2022/12/13 08:58:33;;;;;;;9.50;4.55;;;;;;;;;;5076179;28;20055;-72
2022/12/13 09:00:59;;;;;;;8.82;5.15;;;;;;;;;;5073722;28;20540;-72
2022/12/13 09:03:24;;;;;;;11.82;5.60;;;;;;;;;;5081107;28;20031;-74
2022/12/13 09:05:50;;;;;;;12.75;5.35;;;;;;;;;;5077053;28;20021;-74
2022/12/13 09:08:16;;;;;;;12.00;5.55;;;;;;;;;;5080124;28;20197;-75
2022/12/13 09:10:42;;;;;;;9.48;5.18;;;;;;;;;;5073410;28;20035;-74
2022/12/13 09:13:07;;;;;;;9.70;5.47;;;;;;;;;;5081279;28;20024;-72
2022/12/13 09:15:32;;;;;;;10.23;5.80;;;;;;;;;;5079879;28;20032;-70
2022/12/13 09:17:58;;;;;;;12.25;6.28;;;;;;;;;;5080775;28;20048;-71
2022/12/13 09:20:24;;;;;;;10.38;6.13;;;;;;;;;;5083758;28;20034;-76
2022/12/13 09:22:50;;;;;;;10.05;5.53;;;;;;;;;;5084141;28;20029;-74
2022/12/13 09:25:16;;;;;;;9.40;5.55;;;;;;;;;;5084092;28;20035;-80
2022/12/13 09:27:41;;;;;;;9.88;5.18;;;;;;;;;;5083922;28;20085;-77
2022/12/13 09:30:11;;;;;;;11.00;6.25;;;;;;;;;;5082980;28;20032;-74
2022/12/13 09:32:38;;;;;;;9.52;5.65;;;;;;;;;;5084141;28;20043;-75
2022/12/13 09:35:03;;;;;;;11.05;6.45;;;;;;;;;;5083735;28;20032;-77
2022/12/13 09:37:29;;;;;;;9.55;5.38;;;;;;;;;;5083898;28;20035;-75
2022/12/13 09:39:54;;;;;;;9.73;5.50;;;;;;;;;;5083817;28;20300;-76
2022/12/13 09:42:23;;;;;;;8.32;5.07;;;;;;;;;;5082657;28;20021;-70
2022/12/13 09:44:56;;;;;;;9.00;5.07;;;;;;;;;;5074653;28;20032;-70
2022/12/13 09:47:35;;;;;;;9.25;5.03;;;;;;;;;;5081073;28;20338;-71
2022/12/13 09:50:12;;;;;;;8.38;4.70;;;;;;;;;;5083409;28;20078;-71
2022/12/13 09:52:41;;;;;;;8.25;4.47;;;;;;;;;;5083695;28;20237;-69
2022/12/13 09:55:29;;;;;;;11.43;5.82;;;;;;;;;;5083293;28;20308;-72
2022/12/13 09:57:57;;;;;;;10.48;5.50;;;;;;;;;;5083241;28;20029;-71
2022/12/13 10:00:26;;;;;;;7.97;4.30;;;;;;;;;;5083328;28;20032;-71
2022/12/13 10:02:56;;;;;;;7.88;4.72;;;;;;;;;;5082665;28;20376;-72
2022/12/13 10:05:30;;;;;;;12.88;4.78;;;;;;;;;;5082260;28;20029;-70
2022/12/13 10:07:58;;;;;;;9.52;5.30;;;;;;;;;;5082972;28;20037;-70
2022/12/13 10:10:25;;;;;;;8.20;5.10;;;;;;;;;;5082010;28;20024;-70
2022/12/13 10:13:20;;;;;;;13.57;6.68;;;;;;;;;;5083100;28;20085;-72
2022/12/13 10:16:17;;;;;;;14.82;6.90;;;;;;;;;;5082756;28;20099;-70
2022/12/13 10:18:43;;;;;;;10.82;5.82;;;;;;;;;;5071112;28;20033;-70
2022/12/13 10:21:21;;;;;;;10.73;5.22;;;;;;;;;;5083055;28;20054;-71
2022/12/13 10:23:47;;;;;;;9.35;4.55;;;;;;;;;;5082956;28;20032;-72
2022/12/13 10:26:13;;;;;;;8.52;4.40;;;;;;;;;;5082748;28;20365;-71
2022/12/13 10:28:39;;;;;;;9.20;4.57;;;;;;;;;;5082699;28;20032;-70
2022/12/13 10:31:06;;;;;;;7.82;4.68;;;;;;;;;;5082684;28;20409;-70
2022/12/13 10:33:35;;;;;;;8.63;4.57;;;;;;;;;;5082899;28;20029;-73
2022/12/13 10:36:08;;;;;;;7.15;4.72;;;;;;;;;;5081215;28;20040;-71
2022/12/13 10:38:40;;;;;;;9.98;4.70;;;;;;;;;;5082752;28;20052;-71
2022/12/13 10:41:28;;;;;;;9.20;5.13;;;;;;;;;;5082375;28;20052;-74
2022/12/13 10:44:18;;;;;;;8.77;5.35;;;;;;;;;;5082371;28;20267;-72
2022/12/13 10:47:12;;;;;;;9.55;5.30;;;;;;;;;;5081787;28;20115;-71
2022/12/13 10:49:46;;;;;;;10.00;5.68;;;;;;;;;;5081797;28;20343;-72
2022/12/13 10:52:24;;;;;;;8.93;5.28;;;;;;;;;;5082404;28;20269;-71
2022/12/13 10:54:50;;;;;;;9.95;5.53;;;;;;;;;;5081132;28;20043;-73
2022/12/13 10:57:17;;;;;;;10.13;5.47;;;;;;;;;;5080699;28;20033;-73
2022/12/13 10:59:44;;;;;;;10.75;5.57;;;;;;;;;;5081214;28;20028;-72
2022/12/13 11:02:40;;;;;;;12.20;6.18;;;;;;;;;;5082014;28;20032;-72
2022/12/13 11:05:41;;;;;;;13.45;6.43;;;;;;;;;;5069400;28;20044;-76
2022/12/13 11:08:12;;;;;;;10.55;5.70;;;;;;;;;;5019896;28;20329;-71
2022/12/13 11:10:38;;;;;;;12.23;6.15;;;;;;;;;;5069596;28;20068;-71
2022/12/13 11:13:06;;;;;;;14.30;6.47;;;;;;;;;;5079986;28;20051;-71
2022/12/13 11:15:35;;;;;;;12.55;6.50;;;;;;;;;;5080559;28;20062;-71
2022/12/13 11:18:05;;;;;;;9.80;6.43;;;;;;;;;;5080086;28;20044;-71
2022/12/13 11:20:35;;;;;;;10.60;6.10;;;;;;;;;;5078042;28;20088;-73
2022/12/13 11:23:06;;;;;;;11.80;6.88;;;;;;;;;;5066595;28;20095;-72
2022/12/13 11:25:42;;;;;;;10.40;6.15;;;;;;;;;;5072383;28;20391;-71
2022/12/13 11:28:36;;;;;;;11.85;5.97;;;;;;;;;;5069726;28;20028;-71
2022/12/13 11:31:39;;;;;;;9.90;6.78;;;;;;;;;;5071149;28;20484;-74
2022/12/13 11:34:41;;;;;;;13.77;6.55;;;;;;;;;;5072425;28;20028;-72
2022/12/13 11:37:19;;;;;;;12.57;7.45;;;;;;;;;;5071867;28;20086;-71
2022/12/13 11:40:10;;;;;;;13.02;7.10;;;;;;;;;;5077555;28;20017;-72
2022/12/13 11:43:11;;;;;;;11.10;6.75;;;;;;;;;;5079627;28;20021;-72
2022/12/13 11:45:41;;;;;;;13.90;6.38;;;;;;;;;;5076384;28;20110;-72
2022/12/13 11:48:47;;;;;;;12.15;7.03;;;;;;;;;;5078189;28;20029;-72
2022/12/13 11:51:17;;;;;;;13.98;8.18;;;;;;;;;;5055978;28;20051;-72
2022/12/13 11:53:58;;;;;;;17.63;8.47;;;;;;;;;;5080875;28;20180;-72
2022/12/13 11:56:30;;;;;;;13.95;7.82;;;;;;;;;;5078369;28;20020;-71
2022/12/13 11:59:33;;;;;;;15.48;7.97;;;;;;;;;;5081492;28;20017;-71
2022/12/13 12:02:10;;;;;;;12.93;6.40;;;;;;;;;;5081177;28;20052;-71
2022/12/13 12:04:49;;;;;;;13.48;6.68;;;;;;;;;;5080361;28;20434;-71
2022/12/13 12:07:20;;;;;;;11.60;6.93;;;;;;;;;;5079710;28;20113;-71
2022/12/13 12:09:54;;;;;;;12.15;6.43;;;;;;;;;;5079698;28;20043;-71
2022/12/13 12:12:30;;;;;;;13.48;5.97;;;;;;;;;;5079481;28;20047;-72
2022/12/13 12:15:19;;;;;;;10.75;6.28;;;;;;;;;;5077202;28;20083;-73
2022/12/13 12:17:45;;;;;;;9.93;6.10;;;;;;;;;;5081104;28;20091;-73
2022/12/13 12:20:18;;;;;;;13.77;6.53;;;;;;;;;;5079487;28;20036;-74
2022/12/13 12:23:28;;;;;;;12.95;6.50;;;;;;;;;;5075256;28;20321;-72
2022/12/13 12:26:12;;;;;;;9.60;5.72;;;;;;;;;;5019021;28;20061;-71
2022/12/13 12:29:00;;;;;;;11.55;6.10;;;;;;;;;;5066951;28;20033;-74
2022/12/13 12:32:20;;;;;;;12.75;6.35;;;;;;;;;;5070085;28;20506;-75
2022/12/13 12:34:56;;;;;;;12.73;6.53;;;;;;;;;;5008812;28;20072;-74
2022/12/13 12:37:40;;;;;;;12.38;5.97;;;;;;;;;;5062200;28;20094;-73
2022/12/13 12:40:44;;;;;;;11.75;5.68;;;;;;;;;;5069947;28;20073;-72
2022/12/13 12:43:27;;;;;;;9.48;5.75;;;;;;;;;;5059549;28;20044;-74
2022/12/13 12:45:52;;;;;;;10.23;5.82;;;;;;;;;;5080749;28;20032;-73
2022/12/13 12:48:36;;;;;;;12.30;5.88;;;;;;;;;;5069451;28;20463;-73
2022/12/13 12:51:53;;;;;;;11.15;6.07;;;;;;;;;;5074379;28;20029;-75
2022/12/13 12:54:52;;;;;;;10.02;5.72;;;;;;;;;;5033048;28;20041;-74
2022/12/13 12:58:03;;;;;;;12.02;6.07;;;;;;;;;;5069978;28;20082;-75
2022/12/13 13:00:43;;;;;;;13.97;6.03;;;;;;;;;;5063047;28;20040;-75
2022/12/13 13:03:17;;;;;;;12.88;6.78;;;;;;;;;;5073178;28;20043;-77
2022/12/13 13:06:23;;;;;;;13.27;6.05;;;;;;;;;;5075944;28;20043;-75
2022/12/13 13:08:59;;;;;;;12.27;5.63;;;;;;;;;;5010599;28;20026;-77
2022/12/13 13:11:28;;;;;;;13.02;5.82;;;;;;;;;;5014014;28;20412;-76
2022/12/13 13:13:57;;;;;;;12.60;6.10;;;;;;;;;;5045528;28;20050;-79
2022/12/13 13:16:25;;;;;;;12.38;6.10;;;;;;;;;;5076503;28;20043;-75
2022/12/13 13:18:53;;;;;;;13.95;6.10;;;;;;;;;;5079338;28;20555;-73
2022/12/13 13:21:34;;;;;;;14.20;6.13;;;;;;;;;;5079883;28;20078;-73
2022/12/13 13:24:08;;;;;;;11.68;6.13;;;;;;;;;;5083125;28;20032;-73
2022/12/13 13:26:41;;;;;;;11.95;5.95;;;;;;;;;;5080565;28;20656;-73
2022/12/13 13:29:22;;;;;;;11.70;6.13;;;;;;;;;;5077081;28;20021;-73
2022/12/13 13:32:16;;;;;;;15.73;7.13;;;;;;;;;;5075986;28;20052;-72
2022/12/13 13:34:45;;;;;;;17.50;7.80;;;;;;;;;;5052661;28;20047;-72
2022/12/13 13:37:22;;;;;;;21.98;8.48;;;;;;;;;;5073003;28;20033;-76
2022/12/13 13:40:01;;;;;;;16.40;8.52;;;;;;;;;;5077610;28;20017;-73
2022/12/13 13:42:28;;;;;;;18.83;9.63;;;;;;;;;;5075567;28;20067;-74
2022/12/13 13:45:16;;;;;;;16.75;9.23;;;;;;;;;;5077913;28;20064;-77
2022/12/13 13:47:43;;;;;;;19.42;9.60;;;;;;;;;;5068857;28;20360;-74
2022/12/13 13:50:11;;;;;;;18.83;9.90;;;;;;;;;;5083117;28;20028;-74
2022/12/13 13:53:02;;;;;;;17.05;9.90;;;;;;;;;;5081377;28;20025;-73
2022/12/13 13:55:36;;;;;;;20.20;9.43;;;;;;;;;;5082559;28;20039;-74
2022/12/13 13:58:20;;;;;;;20.48;9.98;;;;;;;;;;5082921;28;20157;-73
2022/12/13 14:01:04;;;;;;;19.55;9.48;;;;;;;;;;5082131;28;20102;-77
2022/12/13 14:03:39;;;;;;;19.65;9.52;;;;;;;;;;5072407;28;20032;-76
2022/12/13 14:06:47;;;;;;;17.38;9.32;;;;;;;;;;5079115;28;20025;-73
2022/12/13 14:09:34;;;;;;;18.40;8.98;;;;;;;;;;5063529;28;20336;-72
2022/12/13 14:12:48;;;;;;;14.50;8.65;;;;;;;;;;5080849;28;20032;-73
2022/12/13 14:15:50;;;;;;;13.23;7.00;;;;;;;;;;5038020;28;20068;-76
2022/12/13 14:18:34;;;;;;;12.07;7.13;;;;;;;;;;5080572;28;20028;-71
2022/12/13 14:21:13;;;;;;;13.70;6.80;;;;;;;;;;5088412;28;20095;-72
2022/12/13 14:23:54;;;;;;;15.65;6.93;;;;;;;;;;5080803;28;20338;-72
2022/12/13 14:26:25;;;;;;;;;;;;;;;;;;5082421;28;20040;-71
2022/12/13 14:28:55;;;;;;;13.40;6.80;;;;;;;;;;5080840;28;19986;-71
2022/12/13 14:31:24;;;;;;;14.75;6.45;;;;;;;;;;5079908;28;20082;-72
2022/12/13 14:33:52;;;;;;;11.82;6.63;;;;;;;;;;5081750;28;20240;-70
2022/12/13 14:36:27;;;;;;;12.98;6.32;;;;;;;;;;5081085;28;20044;-71
2022/12/13 14:39:28;;;;;;;11.73;6.28;;;;;;;;;;5081422;28;20036;-71
2022/12/13 14:41:55;;;;;;;10.70;5.85;;;;;;;;;;5079845;28;20119;-71
2022/12/13 14:44:39;;;;;;;10.50;5.97;;;;;;;;;;5080608;28;20032;-71
2022/12/13 14:47:06;;;;;;;10.23;5.38;;;;;;;;;;5081008;28;20025;-71
2022/12/13 14:49:35;;;;;;;8.98;5.32;;;;;;;;;;5081165;28;20046;-71
2022/12/13 14:52:20;;;;;;;11.35;5.80;;;;;;;;;;5081490;28;20419;-72
2022/12/13 14:54:48;;;;;;;10.10;5.43;;;;;;;;;;5080944;28;20029;-72
2022/12/13 14:57:19;;;;;;;8.60;4.90;;;;;;;;;;5074844;28;20271;-71
2022/12/13 14:59:50;;;;;;;9.85;5.22;;;;;;;;;;5074495;28;20047;-72
2022/12/13 15:02:20;;;;;;;9.13;5.05;;;;;;;;;;5077527;28;20105;-72
2022/12/13 15:04:45;;;;;;;9.82;5.53;;;;;;;;;;5068455;28;20122;-72
2022/12/13 15:07:40;;;;;;;9.45;5.53;;;;;;;;;;5068244;28;20106;-72
2022/12/13 15:10:24;;;;;;;9.15;5.68;;;;;;;;;;5057259;28;20040;-72
2022/12/13 15:12:51;;;;;;;9.98;5.47;;;;;;;;;;5067479;28;20074;-71